sensor_id;sensor_type;location;lat;lon;timestamp;temperature;humidity
21637;DHT22;10980;49.596;6.142;2023-03-21T00:02:27;9.20;97.70
21637;DHT22;10980;49.596;6.142;2023-03-21T00:05:49;9.30;97.80
21637;DHT22;10980;49.596;6.142;2023-03-21T00:09:16;9.10;98.10
21637;DHT22;10980;49.596;6.142;2023-03-21T00:12:39;9.10;97.40
21637;DHT22;10980;49.596;6.142;2023-03-21T00:16:16;9.10;98.30
21637;DHT22;10980;49.596;6.142;2023-03-21T00:19:44;9.10;97.40
21637;DHT22;10980;49.596;6.142;2023-03-21T00:23:07;9.10;96.90
21637;DHT22;10980;49.596;6.142;2023-03-21T00:26:30;9.10;96.60
21637;DHT22;10980;49.596;6.142;2023-03-21T00:29:52;9.20;96.90
21637;DHT22;10980;49.596;6.142;2023-03-21T00:33:14;9.20;96.80
21637;DHT22;10980;49.596;6.142;2023-03-21T00:36:52;9.20;96.50
21637;DHT22;10980;49.596;6.142;2023-03-21T00:40:15;9.20;96.50
21637;DHT22;10980;49.596;6.142;2023-03-21T00:43:52;9.30;96.20
21637;DHT22;10980;49.596;6.142;2023-03-21T00:47:21;9.20;96.30
21637;DHT22;10980;49.596;6.142;2023-03-21T00:50:47;9.30;96.20
21637;DHT22;10980;49.596;6.142;2023-03-21T00:54:13;9.20;96.40
21637;DHT22;10980;49.596;6.142;2023-03-21T00:57:36;9.10;96.60
21637;DHT22;10980;49.596;6.142;2023-03-21T01:01:00;9.00;96.80
21637;DHT22;10980;49.596;6.142;2023-03-21T01:04:24;8.90;96.90
21637;DHT22;10980;49.596;6.142;2023-03-21T01:07:46;8.90;96.80
21637;DHT22;10980;49.596;6.142;2023-03-21T01:11:11;8.90;96.90
21637;DHT22;10980;49.596;6.142;2023-03-21T01:14:38;8.80;97.30
21637;DHT22;10980;49.596;6.142;2023-03-21T01:18:00;8.70;97.70
21637;DHT22;10980;49.596;6.142;2023-03-21T01:21:24;8.60;97.90
21637;DHT22;10980;49.596;6.142;2023-03-21T01:24:47;8.80;97.60
21637;DHT22;10980;49.596;6.142;2023-03-21T01:28:29;8.80;97.60
21637;DHT22;10980;49.596;6.142;2023-03-21T01:31:51;8.70;97.60
21637;DHT22;10980;49.596;6.142;2023-03-21T01:35:21;8.70;97.70
21637;DHT22;10980;49.596;6.142;2023-03-21T01:38:44;8.70;97.80
21637;DHT22;10980;49.596;6.142;2023-03-21T01:42:12;8.70;97.70
21637;DHT22;10980;49.596;6.142;2023-03-21T01:50:30;9.00;97.10
21637;DHT22;10980;49.596;6.142;2023-03-21T01:53:58;9.00;97.10
21637;DHT22;10980;49.596;6.142;2023-03-21T01:57:39;8.90;97.30
21637;DHT22;10980;49.596;6.142;2023-03-21T02:01:33;8.90;97.20
21637;DHT22;10980;49.596;6.142;2023-03-21T02:04:58;8.90;97.30
21637;DHT22;10980;49.596;6.142;2023-03-21T02:08:29;8.90;97.10
21637;DHT22;10980;49.596;6.142;2023-03-21T02:12:13;8.90;97.10
21637;DHT22;10980;49.596;6.142;2023-03-21T02:15:40;8.90;97.10
21637;DHT22;10980;49.596;6.142;2023-03-21T02:27:32;8.90;97.10
21637;DHT22;10980;49.596;6.142;2023-03-21T02:31:20;8.80;97.30
21637;DHT22;10980;49.596;6.142;2023-03-21T02:35:03;8.80;97.20
21637;DHT22;10980;49.596;6.142;2023-03-21T02:38:40;8.80;97.20
21637;DHT22;10980;49.596;6.142;2023-03-21T02:42:33;8.70;97.50
21637;DHT22;10980;49.596;6.142;2023-03-21T02:46:07;8.70;97.40
21637;DHT22;10980;49.596;6.142;2023-03-21T02:53:20;8.90;97.10
21637;DHT22;10980;49.596;6.142;2023-03-21T02:56:48;8.90;97.00
21637;DHT22;10980;49.596;6.142;2023-03-21T03:00:17;8.90;97.00
21637;DHT22;10980;49.596;6.142;2023-03-21T03:03:43;8.70;97.40
21637;DHT22;10980;49.596;6.142;2023-03-21T03:07:34;8.70;97.50
21637;DHT22;10980;49.596;6.142;2023-03-21T03:15:06;8.60;97.70
21637;DHT22;10980;49.596;6.142;2023-03-21T03:18:54;8.60;97.70
21637;DHT22;10980;49.596;6.142;2023-03-21T03:22:27;8.60;97.60
21637;DHT22;10980;49.596;6.142;2023-03-21T03:26:33;8.70;97.70
21637;DHT22;10980;49.596;6.142;2023-03-21T03:30:01;8.60;97.40
21637;DHT22;10980;49.596;6.142;2023-03-21T03:33:26;8.60;97.60
21637;DHT22;10980;49.596;6.142;2023-03-21T03:36:57;8.60;97.50
21637;DHT22;10980;49.596;6.142;2023-03-21T03:40:39;8.50;97.90
21637;DHT22;10980;49.596;6.142;2023-03-21T03:44:20;8.50;97.70
21637;DHT22;10980;49.596;6.142;2023-03-21T03:48:05;8.40;97.80
21637;DHT22;10980;49.596;6.142;2023-03-21T03:52:06;8.40;98.20
21637;DHT22;10980;49.596;6.142;2023-03-21T03:55:45;8.30;98.20
21637;DHT22;10980;49.596;6.142;2023-03-21T03:59:15;8.20;98.50
21637;DHT22;10980;49.596;6.142;2023-03-21T04:02:50;8.20;98.80
21637;DHT22;10980;49.596;6.142;2023-03-21T04:06:18;8.10;98.90
21637;DHT22;10980;49.596;6.142;2023-03-21T04:09:44;8.20;98.90
21637;DHT22;10980;49.596;6.142;2023-03-21T04:13:11;8.10;99.10
21637;DHT22;10980;49.596;6.142;2023-03-21T04:16:57;8.10;99.10
21637;DHT22;10980;49.596;6.142;2023-03-21T04:20:19;8.10;99.10
21637;DHT22;10980;49.596;6.142;2023-03-21T04:23:57;8.10;99.60
21637;DHT22;10980;49.596;6.142;2023-03-21T04:27:20;8.10;99.90
21637;DHT22;10980;49.596;6.142;2023-03-21T04:31:15;8.00;99.90
21637;DHT22;10980;49.596;6.142;2023-03-21T04:34:54;8.10;99.90
21637;DHT22;10980;49.596;6.142;2023-03-21T04:38:19;8.10;99.90
21637;DHT22;10980;49.596;6.142;2023-03-21T04:41:44;8.20;99.90
21637;DHT22;10980;49.596;6.142;2023-03-21T04:45:08;8.20;99.90
21637;DHT22;10980;49.596;6.142;2023-03-21T04:48:32;8.10;99.90
21637;DHT22;10980;49.596;6.142;2023-03-21T04:51:56;8.10;99.90
21637;DHT22;10980;49.596;6.142;2023-03-21T04:55:20;8.20;99.90
21637;DHT22;10980;49.596;6.142;2023-03-21T04:58:43;8.10;99.90
21637;DHT22;10980;49.596;6.142;2023-03-21T05:02:06;8.20;99.90
21637;DHT22;10980;49.596;6.142;2023-03-21T05:05:31;8.20;99.70
21637;DHT22;10980;49.596;6.142;2023-03-21T05:08:56;8.10;99.80
21637;DHT22;10980;49.596;6.142;2023-03-21T05:12:27;8.20;99.70
21637;DHT22;10980;49.596;6.142;2023-03-21T05:15:49;8.00;99.90
21637;DHT22;10980;49.596;6.142;2023-03-21T05:19:11;8.00;99.90
21637;DHT22;10980;49.596;6.142;2023-03-21T05:22:36;8.10;99.90
21637;DHT22;10980;49.596;6.142;2023-03-21T05:26:06;7.90;99.90
21637;DHT22;10980;49.596;6.142;2023-03-21T05:29:42;8.00;99.90
21637;DHT22;10980;49.596;6.142;2023-03-21T05:33:07;8.00;99.90
21637;DHT22;10980;49.596;6.142;2023-03-21T05:36:32;8.00;99.90
21637;DHT22;10980;49.596;6.142;2023-03-21T05:39:59;8.10;99.60
21637;DHT22;10980;49.596;6.142;2023-03-21T05:43:25;8.00;99.70
21637;DHT22;10980;49.596;6.142;2023-03-21T05:46:47;8.00;99.60
21637;DHT22;10980;49.596;6.142;2023-03-21T05:50:11;8.10;99.60
21637;DHT22;10980;49.596;6.142;2023-03-21T05:53:37;8.20;99.40
21637;DHT22;10980;49.596;6.142;2023-03-21T05:56:58;8.30;99.50
21637;DHT22;10980;49.596;6.142;2023-03-21T06:00:44;8.30;99.90
21637;DHT22;10980;49.596;6.142;2023-03-21T06:04:15;8.20;99.90
21637;DHT22;10980;49.596;6.142;2023-03-21T06:07:37;8.30;99.80
21637;DHT22;10980;49.596;6.142;2023-03-21T06:11:02;8.40;99.90
21637;DHT22;10980;49.596;6.142;2023-03-21T06:14:29;8.40;99.90
21637;DHT22;10980;49.596;6.142;2023-03-21T06:18:08;8.40;99.90
21637;DHT22;10980;49.596;6.142;2023-03-21T06:21:34;8.30;99.90
21637;DHT22;10980;49.596;6.142;2023-03-21T06:24:58;8.30;99.90
21637;DHT22;10980;49.596;6.142;2023-03-21T06:28:20;8.30;99.90
21637;DHT22;10980;49.596;6.142;2023-03-21T06:31:43;8.40;99.90
21637;DHT22;10980;49.596;6.142;2023-03-21T06:35:06;8.40;99.90
21637;DHT22;10980;49.596;6.142;2023-03-21T06:38:29;8.40;99.90
21637;DHT22;10980;49.596;6.142;2023-03-21T06:41:52;8.50;99.90
21637;DHT22;10980;49.596;6.142;2023-03-21T06:45:15;8.50;99.90
21637;DHT22;10980;49.596;6.142;2023-03-21T06:48:39;8.40;99.90
21637;DHT22;10980;49.596;6.142;2023-03-21T06:52:06;8.30;99.90
21637;DHT22;10980;49.596;6.142;2023-03-21T06:55:29;8.20;99.90
21637;DHT22;10980;49.596;6.142;2023-03-21T06:58:53;8.20;99.90
21637;DHT22;10980;49.596;6.142;2023-03-21T07:02:34;8.30;99.90
21637;DHT22;10980;49.596;6.142;2023-03-21T07:06:08;8.40;99.90
21637;DHT22;10980;49.596;6.142;2023-03-21T07:09:34;8.50;99.90
21637;DHT22;10980;49.596;6.142;2023-03-21T07:13:00;8.60;99.90
21637;DHT22;10980;49.596;6.142;2023-03-21T07:16:41;8.80;99.90
21637;DHT22;10980;49.596;6.142;2023-03-21T07:20:03;8.90;99.90
21637;DHT22;10980;49.596;6.142;2023-03-21T07:23:29;8.80;99.90
21637;DHT22;10980;49.596;6.142;2023-03-21T07:26:51;8.60;99.90
21637;DHT22;10980;49.596;6.142;2023-03-21T07:30:14;8.70;99.90
21637;DHT22;10980;49.596;6.142;2023-03-21T07:33:36;8.70;99.90
21637;DHT22;10980;49.596;6.142;2023-03-21T07:37:01;8.80;99.90
21637;DHT22;10980;49.596;6.142;2023-03-21T07:40:28;8.90;99.90
21637;DHT22;10980;49.596;6.142;2023-03-21T07:43:50;8.90;99.90
21637;DHT22;10980;49.596;6.142;2023-03-21T07:47:13;9.00;99.90
21637;DHT22;10980;49.596;6.142;2023-03-21T07:50:35;9.10;99.90
21637;DHT22;10980;49.596;6.142;2023-03-21T07:53:57;9.00;99.90
21637;DHT22;10980;49.596;6.142;2023-03-21T07:57:20;9.00;99.90
21637;DHT22;10980;49.596;6.142;2023-03-21T08:00:43;9.00;99.90
21637;DHT22;10980;49.596;6.142;2023-03-21T08:04:11;9.40;99.90
21637;DHT22;10980;49.596;6.142;2023-03-21T08:07:34;9.60;99.90
21637;DHT22;10980;49.596;6.142;2023-03-21T08:10:56;9.80;99.90
21637;DHT22;10980;49.596;6.142;2023-03-21T08:14:19;10.00;99.90
21637;DHT22;10980;49.596;6.142;2023-03-21T08:17:43;10.50;98.90
21637;DHT22;10980;49.596;6.142;2023-03-21T08:21:08;11.00;98.30
21637;DHT22;10980;49.596;6.142;2023-03-21T08:24:32;11.00;97.60
21637;DHT22;10980;49.596;6.142;2023-03-21T08:27:54;10.80;97.30
21637;DHT22;10980;49.596;6.142;2023-03-21T08:31:17;10.60;97.50
21637;DHT22;10980;49.596;6.142;2023-03-21T08:34:39;10.60;98.10
21637;DHT22;10980;49.596;6.142;2023-03-21T08:38:04;10.50;98.10
21637;DHT22;10980;49.596;6.142;2023-03-21T08:41:28;10.60;98.30
21637;DHT22;10980;49.596;6.142;2023-03-21T08:44:51;10.90;97.00
21637;DHT22;10980;49.596;6.142;2023-03-21T08:48:13;11.10;96.60
21637;DHT22;10980;49.596;6.142;2023-03-21T08:51:35;11.30;97.10
21637;DHT22;10980;49.596;6.142;2023-03-21T08:54:59;11.60;96.90
21637;DHT22;10980;49.596;6.142;2023-03-21T08:58:22;11.80;95.80
21637;DHT22;10980;49.596;6.142;2023-03-21T09:01:45;11.70;95.20
21637;DHT22;10980;49.596;6.142;2023-03-21T09:05:09;11.60;95.70
21637;DHT22;10980;49.596;6.142;2023-03-21T09:08:32;11.40;95.30
21637;DHT22;10980;49.596;6.142;2023-03-21T09:12:02;11.20;96.10
21637;DHT22;10980;49.596;6.142;2023-03-21T09:15:42;11.30;96.10
21637;DHT22;10980;49.596;6.142;2023-03-21T09:19:04;11.20;95.80
21637;DHT22;10980;49.596;6.142;2023-03-21T09:22:29;11.10;96.20
21637;DHT22;10980;49.596;6.142;2023-03-21T09:25:59;11.10;96.00
21637;DHT22;10980;49.596;6.142;2023-03-21T09:29:25;11.10;96.10
21637;DHT22;10980;49.596;6.142;2023-03-21T09:32:48;11.40;95.90
21637;DHT22;10980;49.596;6.142;2023-03-21T09:36:19;11.60;95.70
21637;DHT22;10980;49.596;6.142;2023-03-21T09:39:42;12.00;95.60
21637;DHT22;10980;49.596;6.142;2023-03-21T09:50:36;12.20;96.00
21637;DHT22;10980;49.596;6.142;2023-03-21T09:54:17;12.20;96.20
21637;DHT22;10980;49.596;6.142;2023-03-21T09:57:49;12.10;96.50
21637;DHT22;10980;49.596;6.142;2023-03-21T10:01:28;11.80;97.20
21637;DHT22;10980;49.596;6.142;2023-03-21T10:05:02;11.70;97.00
21637;DHT22;10980;49.596;6.142;2023-03-21T10:08:39;11.40;98.20
21637;DHT22;10980;49.596;6.142;2023-03-21T10:12:06;11.20;99.30
21637;DHT22;10980;49.596;6.142;2023-03-21T10:15:35;11.10;99.90
21637;DHT22;10980;49.596;6.142;2023-03-21T10:18:59;11.30;99.90
21637;DHT22;10980;49.596;6.142;2023-03-21T10:22:25;11.50;99.60
21637;DHT22;10980;49.596;6.142;2023-03-21T10:25:53;11.60;99.00
21637;DHT22;10980;49.596;6.142;2023-03-21T10:29:43;11.70;98.10
21637;DHT22;10980;49.596;6.142;2023-03-21T10:33:10;11.50;98.80
21637;DHT22;10980;49.596;6.142;2023-03-21T10:36:36;11.30;99.60
21637;DHT22;10980;49.596;6.142;2023-03-21T10:40:00;11.60;98.80
21637;DHT22;10980;49.596;6.142;2023-03-21T10:43:35;11.70;98.80
21637;DHT22;10980;49.596;6.142;2023-03-21T10:47:09;12.10;98.70
21637;DHT22;10980;49.596;6.142;2023-03-21T10:50:31;12.30;97.70
21637;DHT22;10980;49.596;6.142;2023-03-21T10:54:02;12.30;97.10
21637;DHT22;10980;49.596;6.142;2023-03-21T10:57:29;11.80;97.90
21637;DHT22;10980;49.596;6.142;2023-03-21T11:00:57;11.60;98.50
21637;DHT22;10980;49.596;6.142;2023-03-21T11:04:28;11.60;98.50
21637;DHT22;10980;49.596;6.142;2023-03-21T11:08:20;12.10;98.30
21637;DHT22;10980;49.596;6.142;2023-03-21T11:11:54;12.70;95.50
21637;DHT22;10980;49.596;6.142;2023-03-21T11:19:32;13.10;95.90
21637;DHT22;10980;49.596;6.142;2023-03-21T11:23:02;13.10;94.80
21637;DHT22;10980;49.596;6.142;2023-03-21T11:26:35;13.00;94.40
21637;DHT22;10980;49.596;6.142;2023-03-21T11:29:59;12.80;94.80
21637;DHT22;10980;49.596;6.142;2023-03-21T11:33:26;12.80;95.00
21637;DHT22;10980;49.596;6.142;2023-03-21T11:37:18;13.00;95.10
21637;DHT22;10980;49.596;6.142;2023-03-21T11:40:58;12.90;95.60
21637;DHT22;10980;49.596;6.142;2023-03-21T11:44:42;12.80;94.50
21637;DHT22;10980;49.596;6.142;2023-03-21T11:48:12;12.60;94.90
21637;DHT22;10980;49.596;6.142;2023-03-21T11:55:44;12.30;96.00
21637;DHT22;10980;49.596;6.142;2023-03-21T11:59:42;12.30;96.10
21637;DHT22;10980;49.596;6.142;2023-03-21T12:03:45;12.60;95.20
21637;DHT22;10980;49.596;6.142;2023-03-21T12:11:19;13.30;94.10
21637;DHT22;10980;49.596;6.142;2023-03-21T12:15:12;13.60;93.40
21637;DHT22;10980;49.596;6.142;2023-03-21T12:19:28;13.70;93.00
21637;DHT22;10980;49.596;6.142;2023-03-21T12:27:32;13.90;92.60
21637;DHT22;10980;49.596;6.142;2023-03-21T12:31:17;13.90;92.20
21637;DHT22;10980;49.596;6.142;2023-03-21T12:35:15;13.70;92.30
21637;DHT22;10980;49.596;6.142;2023-03-21T12:39:29;13.80;92.40
21637;DHT22;10980;49.596;6.142;2023-03-21T12:47:03;13.50;93.50
21637;DHT22;10980;49.596;6.142;2023-03-21T12:50:34;13.40;93.60
21637;DHT22;10980;49.596;6.142;2023-03-21T12:58:10;13.50;93.50
21637;DHT22;10980;49.596;6.142;2023-03-21T13:01:40;13.80;93.00
21637;DHT22;10980;49.596;6.142;2023-03-21T13:09:33;14.60;91.50
21637;DHT22;10980;49.596;6.142;2023-03-21T13:13:25;14.70;91.00
21637;DHT22;10980;49.596;6.142;2023-03-21T13:17:14;14.70;91.20
21637;DHT22;10980;49.596;6.142;2023-03-21T13:21:07;15.10;90.50
21637;DHT22;10980;49.596;6.142;2023-03-21T13:24:49;15.10;90.10
21637;DHT22;10980;49.596;6.142;2023-03-21T13:28:26;15.20;89.50
21637;DHT22;10980;49.596;6.142;2023-03-21T13:31:51;15.20;89.30
21637;DHT22;10980;49.596;6.142;2023-03-21T13:35:23;15.40;88.80
21637;DHT22;10980;49.596;6.142;2023-03-21T13:39:00;15.70;88.10
21637;DHT22;10980;49.596;6.142;2023-03-21T13:42:32;15.60;88.20
21637;DHT22;10980;49.596;6.142;2023-03-21T13:54:14;15.50;83.30
21637;DHT22;10980;49.596;6.142;2023-03-21T13:57:47;15.40;82.00
21637;DHT22;10980;49.596;6.142;2023-03-21T14:01:25;15.40;82.20
21637;DHT22;10980;49.596;6.142;2023-03-21T14:05:19;15.20;82.30
21637;DHT22;10980;49.596;6.142;2023-03-21T14:08:47;15.40;82.00
21637;DHT22;10980;49.596;6.142;2023-03-21T14:12:37;15.70;81.30
21637;DHT22;10980;49.596;6.142;2023-03-21T14:16:14;15.60;81.10
21637;DHT22;10980;49.596;6.142;2023-03-21T14:19:37;15.50;81.60
21637;DHT22;10980;49.596;6.142;2023-03-21T14:22:59;15.40;81.80
21637;DHT22;10980;49.596;6.142;2023-03-21T14:26:31;15.30;81.70
21637;DHT22;10980;49.596;6.142;2023-03-21T14:29:57;15.30;82.00
21637;DHT22;10980;49.596;6.142;2023-03-21T14:37:10;15.30;81.80
21637;DHT22;10980;49.596;6.142;2023-03-21T14:40:53;15.30;80.80
21637;DHT22;10980;49.596;6.142;2023-03-21T14:44:24;15.30;81.80
21637;DHT22;10980;49.596;6.142;2023-03-21T14:48:05;15.30;81.80
21637;DHT22;10980;49.596;6.142;2023-03-21T14:51:42;15.10;81.70
21637;DHT22;10980;49.596;6.142;2023-03-21T14:55:15;15.20;81.60
21637;DHT22;10980;49.596;6.142;2023-03-21T14:58:39;15.20;81.80
21637;DHT22;10980;49.596;6.142;2023-03-21T15:02:16;15.20;81.30
21637;DHT22;10980;49.596;6.142;2023-03-21T15:05:41;15.10;81.60
21637;DHT22;10980;49.596;6.142;2023-03-21T15:09:04;15.30;81.90
21637;DHT22;10980;49.596;6.142;2023-03-21T15:12:26;15.40;81.70
21637;DHT22;10980;49.596;6.142;2023-03-21T15:15:49;15.00;82.20
21637;DHT22;10980;49.596;6.142;2023-03-21T15:19:17;14.80;83.70
21637;DHT22;10980;49.596;6.142;2023-03-21T15:22:51;14.70;83.30
21637;DHT22;10980;49.596;6.142;2023-03-21T15:26:20;14.80;83.50
21637;DHT22;10980;49.596;6.142;2023-03-21T15:29:45;14.90;83.30
21637;DHT22;10980;49.596;6.142;2023-03-21T15:33:09;14.90;83.20
21637;DHT22;10980;49.596;6.142;2023-03-21T15:36:40;14.90;83.50
21637;DHT22;10980;49.596;6.142;2023-03-21T15:40:27;15.00;83.00
21637;DHT22;10980;49.596;6.142;2023-03-21T15:44:13;15.00;82.90
21637;DHT22;10980;49.596;6.142;2023-03-21T15:51:21;14.50;84.10
21637;DHT22;10980;49.596;6.142;2023-03-21T15:54:47;14.30;83.70
21637;DHT22;10980;49.596;6.142;2023-03-21T15:58:22;14.30;83.50
21637;DHT22;10980;49.596;6.142;2023-03-21T16:01:48;14.20;83.10
21637;DHT22;10980;49.596;6.142;2023-03-21T16:05:22;13.90;82.60
21637;DHT22;10980;49.596;6.142;2023-03-21T16:09:04;13.80;83.90
21637;DHT22;10980;49.596;6.142;2023-03-21T16:12:35;13.90;82.10
21637;DHT22;10980;49.596;6.142;2023-03-21T16:15:56;14.00;81.50
21637;DHT22;10980;49.596;6.142;2023-03-21T16:19:19;13.80;81.30
21637;DHT22;10980;49.596;6.142;2023-03-21T16:22:45;13.80;81.50
21637;DHT22;10980;49.596;6.142;2023-03-21T16:26:20;14.00;81.60
21637;DHT22;10980;49.596;6.142;2023-03-21T16:29:45;14.30;81.30
21637;DHT22;10980;49.596;6.142;2023-03-21T16:33:12;14.40;80.40
21637;DHT22;10980;49.596;6.142;2023-03-21T16:36:43;14.40;80.20
21637;DHT22;10980;49.596;6.142;2023-03-21T16:40:36;14.40;80.70
21637;DHT22;10980;49.596;6.142;2023-03-21T16:44:00;14.40;80.70
21637;DHT22;10980;49.596;6.142;2023-03-21T16:47:36;14.10;81.20
21637;DHT22;10980;49.596;6.142;2023-03-21T16:50:59;13.80;82.00
21637;DHT22;10980;49.596;6.142;2023-03-21T16:54:21;13.60;83.20
21637;DHT22;10980;49.596;6.142;2023-03-21T16:57:52;13.50;83.80
21637;DHT22;10980;49.596;6.142;2023-03-21T17:01:18;13.40;84.40
21637;DHT22;10980;49.596;6.142;2023-03-21T17:04:41;13.40;84.50
21637;DHT22;10980;49.596;6.142;2023-03-21T17:08:16;13.50;84.00
21637;DHT22;10980;49.596;6.142;2023-03-21T17:11:42;13.50;84.40
21637;DHT22;10980;49.596;6.142;2023-03-21T17:15:08;13.50;84.50
21637;DHT22;10980;49.596;6.142;2023-03-21T17:18:36;13.50;84.70
21637;DHT22;10980;49.596;6.142;2023-03-21T17:22:06;13.40;84.60
21637;DHT22;10980;49.596;6.142;2023-03-21T17:25:29;13.30;85.20
21637;DHT22;10980;49.596;6.142;2023-03-21T17:28:54;13.30;85.30
21637;DHT22;10980;49.596;6.142;2023-03-21T17:32:21;13.20;86.00
21637;DHT22;10980;49.596;6.142;2023-03-21T17:35:43;13.30;85.80
21637;DHT22;10980;49.596;6.142;2023-03-21T17:39:11;13.20;86.30
21637;DHT22;10980;49.596;6.142;2023-03-21T17:42:37;13.20;86.40
21637;DHT22;10980;49.596;6.142;2023-03-21T17:46:05;13.10;86.40
21637;DHT22;10980;49.596;6.142;2023-03-21T17:49:31;13.20;86.00
21637;DHT22;10980;49.596;6.142;2023-03-21T17:52:53;13.10;86.50
21637;DHT22;10980;49.596;6.142;2023-03-21T17:56:24;13.10;86.50
21637;DHT22;10980;49.596;6.142;2023-03-21T17:59:50;13.00;87.00
21637;DHT22;10980;49.596;6.142;2023-03-21T18:03:15;12.80;88.40
21637;DHT22;10980;49.596;6.142;2023-03-21T18:06:45;12.50;88.50
21637;DHT22;10980;49.596;6.142;2023-03-21T18:10:26;12.50;88.90
21637;DHT22;10980;49.596;6.142;2023-03-21T18:13:51;12.50;89.10
21637;DHT22;10980;49.596;6.142;2023-03-21T18:17:31;12.40;89.10
21637;DHT22;10980;49.596;6.142;2023-03-21T18:20:53;12.20;89.90
21637;DHT22;10980;49.596;6.142;2023-03-21T18:24:27;12.20;90.00
21637;DHT22;10980;49.596;6.142;2023-03-21T18:27:49;12.20;90.10
21637;DHT22;10980;49.596;6.142;2023-03-21T18:31:31;12.20;90.00
21637;DHT22;10980;49.596;6.142;2023-03-21T18:34:53;12.30;90.10
21637;DHT22;10980;49.596;6.142;2023-03-21T18:38:15;12.30;90.00
21637;DHT22;10980;49.596;6.142;2023-03-21T18:41:38;12.20;90.10
21637;DHT22;10980;49.596;6.142;2023-03-21T18:45:01;12.20;90.30
21637;DHT22;10980;49.596;6.142;2023-03-21T18:48:23;12.30;90.20
21637;DHT22;10980;49.596;6.142;2023-03-21T18:51:56;12.20;90.20
21637;DHT22;10980;49.596;6.142;2023-03-21T18:55:19;12.30;90.40
21637;DHT22;10980;49.596;6.142;2023-03-21T18:58:44;12.10;90.50
21637;DHT22;10980;49.596;6.142;2023-03-21T19:02:06;12.10;90.80
21637;DHT22;10980;49.596;6.142;2023-03-21T19:05:28;12.20;90.70
21637;DHT22;10980;49.596;6.142;2023-03-21T19:08:51;12.20;90.70
21637;DHT22;10980;49.596;6.142;2023-03-21T19:12:14;12.00;90.90
21637;DHT22;10980;49.596;6.142;2023-03-21T19:15:38;11.70;91.50
21637;DHT22;10980;49.596;6.142;2023-03-21T19:19:02;11.60;91.90
21637;DHT22;10980;49.596;6.142;2023-03-21T19:22:26;11.40;92.30
21637;DHT22;10980;49.596;6.142;2023-03-21T19:25:49;11.30;92.70
21637;DHT22;10980;49.596;6.142;2023-03-21T19:29:13;11.20;92.90
21637;DHT22;10980;49.596;6.142;2023-03-21T19:32:47;11.10;93.30
21637;DHT22;10980;49.596;6.142;2023-03-21T19:36:18;11.00;93.60
21637;DHT22;10980;49.596;6.142;2023-03-21T19:39:49;10.80;94.00
21637;DHT22;10980;49.596;6.142;2023-03-21T19:43:17;10.80;94.30
21637;DHT22;10980;49.596;6.142;2023-03-21T19:47:07;10.70;94.60
21637;DHT22;10980;49.596;6.142;2023-03-21T19:50:37;10.50;95.10
21637;DHT22;10980;49.596;6.142;2023-03-21T19:54:21;10.30;95.80
21637;DHT22;10980;49.596;6.142;2023-03-21T19:57:44;10.20;96.30
21637;DHT22;10980;49.596;6.142;2023-03-21T20:01:09;10.10;96.60
21637;DHT22;10980;49.596;6.142;2023-03-21T20:04:35;10.00;97.10
21637;DHT22;10980;49.596;6.142;2023-03-21T20:07:59;9.80;97.70
21637;DHT22;10980;49.596;6.142;2023-03-21T20:11:21;9.80;97.90
21637;DHT22;10980;49.596;6.142;2023-03-21T20:14:44;9.80;98.30
21637;DHT22;10980;49.596;6.142;2023-03-21T20:18:10;9.80;98.40
21637;DHT22;10980;49.596;6.142;2023-03-21T20:21:32;10.00;98.30
21637;DHT22;10980;49.596;6.142;2023-03-21T20:25:09;10.00;98.30
21637;DHT22;10980;49.596;6.142;2023-03-21T20:28:33;9.90;98.30
21637;DHT22;10980;49.596;6.142;2023-03-21T20:31:57;9.90;98.70
21637;DHT22;10980;49.596;6.142;2023-03-21T20:35:19;10.00;98.80
21637;DHT22;10980;49.596;6.142;2023-03-21T20:39:01;10.00;98.50
21637;DHT22;10980;49.596;6.142;2023-03-21T20:42:23;10.00;98.80
21637;DHT22;10980;49.596;6.142;2023-03-21T20:45:45;10.20;98.70
21637;DHT22;10980;49.596;6.142;2023-03-21T20:49:07;10.30;98.50
21637;DHT22;10980;49.596;6.142;2023-03-21T20:52:29;10.40;98.30
21637;DHT22;10980;49.596;6.142;2023-03-21T20:56:11;10.40;98.10
21637;DHT22;10980;49.596;6.142;2023-03-21T20:59:35;10.50;97.70
21637;DHT22;10980;49.596;6.142;2023-03-21T21:02:59;10.40;98.20
21637;DHT22;10980;49.596;6.142;2023-03-21T21:06:22;10.20;98.50
21637;DHT22;10980;49.596;6.142;2023-03-21T21:09:44;10.10;98.80
21637;DHT22;10980;49.596;6.142;2023-03-21T21:13:06;9.90;99.50
21637;DHT22;10980;49.596;6.142;2023-03-21T21:16:28;9.70;99.90
21637;DHT22;10980;49.596;6.142;2023-03-21T21:19:50;9.60;99.90
21637;DHT22;10980;49.596;6.142;2023-03-21T21:23:13;9.40;99.90
21637;DHT22;10980;49.596;6.142;2023-03-21T21:26:42;9.30;99.90
21637;DHT22;10980;49.596;6.142;2023-03-21T21:30:07;9.10;99.90
21637;DHT22;10980;49.596;6.142;2023-03-21T21:33:32;9.00;99.90
21637;DHT22;10980;49.596;6.142;2023-03-21T21:36:58;8.90;99.90
21637;DHT22;10980;49.596;6.142;2023-03-21T21:40:20;8.80;99.90
21637;DHT22;10980;49.596;6.142;2023-03-21T21:43:45;8.70;99.90
21637;DHT22;10980;49.596;6.142;2023-03-21T21:47:10;8.70;99.90
21637;DHT22;10980;49.596;6.142;2023-03-21T21:50:33;8.60;99.90
21637;DHT22;10980;49.596;6.142;2023-03-21T21:54:01;8.70;99.90
21637;DHT22;10980;49.596;6.142;2023-03-21T21:57:32;8.70;99.90
21637;DHT22;10980;49.596;6.142;2023-03-21T22:00:59;8.60;99.90
21637;DHT22;10980;49.596;6.142;2023-03-21T22:04:22;8.50;99.90
21637;DHT22;10980;49.596;6.142;2023-03-21T22:07:49;8.60;99.90
21637;DHT22;10980;49.596;6.142;2023-03-21T22:11:13;8.60;99.90
21637;DHT22;10980;49.596;6.142;2023-03-21T22:14:36;8.50;99.90
21637;DHT22;10980;49.596;6.142;2023-03-21T22:17:58;8.40;99.90
21637;DHT22;10980;49.596;6.142;2023-03-21T22:21:20;8.40;99.90
21637;DHT22;10980;49.596;6.142;2023-03-21T22:24:42;8.40;99.90
21637;DHT22;10980;49.596;6.142;2023-03-21T22:28:04;8.30;99.90
21637;DHT22;10980;49.596;6.142;2023-03-21T22:31:25;8.20;99.90
21637;DHT22;10980;49.596;6.142;2023-03-21T22:34:47;8.00;99.90
21637;DHT22;10980;49.596;6.142;2023-03-21T22:38:09;8.00;99.90
21637;DHT22;10980;49.596;6.142;2023-03-21T22:41:31;7.90;99.90
21637;DHT22;10980;49.596;6.142;2023-03-21T22:45:10;7.90;99.90
21637;DHT22;10980;49.596;6.142;2023-03-21T22:48:33;7.90;99.90
21637;DHT22;10980;49.596;6.142;2023-03-21T22:51:55;8.00;99.90
21637;DHT22;10980;49.596;6.142;2023-03-21T22:55:24;7.90;99.90
21637;DHT22;10980;49.596;6.142;2023-03-21T22:58:47;7.90;99.90
21637;DHT22;10980;49.596;6.142;2023-03-21T23:02:09;7.80;99.90
21637;DHT22;10980;49.596;6.142;2023-03-21T23:05:31;7.80;99.90
21637;DHT22;10980;49.596;6.142;2023-03-21T23:08:53;7.70;99.90
21637;DHT22;10980;49.596;6.142;2023-03-21T23:12:21;7.80;99.90
21637;DHT22;10980;49.596;6.142;2023-03-21T23:15:43;7.80;99.90
21637;DHT22;10980;49.596;6.142;2023-03-21T23:19:06;7.80;99.90
21637;DHT22;10980;49.596;6.142;2023-03-21T23:22:38;7.80;99.90
21637;DHT22;10980;49.596;6.142;2023-03-21T23:26:12;7.80;99.90